Time;durP1;ratioP1;P1;durP2;ratioP2;P2;SDS_P1;SDS_P2;PMS_P1;PMS_P2;Temp;Humidity;BMP_temperature;BMP_pressure;BME280_temperature;BME280_humidity;BME280_pressure;Samples;Min_cycle;Max_cycle;Signal;HPM_P1;HPM_P2
2022/05/13 00:01:56;;;;;;;0.82;0.47;;;21.80;57.00;;;;;;5055019;28;20361;-57
2022/05/13 00:04:21;;;;;;;1.05;0.50;;;21.70;57.00;;;;;;5055753;28;20518;-57
2022/05/13 00:06:47;;;;;;;2.22;0.70;;;21.70;57.00;;;;;;5055690;28;20419;-57
2022/05/13 00:09:12;;;;;;;1.77;0.60;;;21.70;57.00;;;;;;5055192;28;20088;-57
2022/05/13 00:11:38;;;;;;;0.82;0.55;;;21.70;56.90;;;;;;5056002;28;20128;-58
2022/05/13 00:14:04;;;;;;;1.58;0.60;;;21.70;57.00;;;;;;5055232;28;20075;-57
2022/05/13 00:16:29;;;;;;;1.63;0.70;;;21.70;56.90;;;;;;5055104;28;20045;-57
2022/05/13 00:18:55;;;;;;;1.17;0.60;;;21.70;57.60;;;;;;5055487;28;20457;-57
2022/05/13 00:21:21;;;;;;;1.08;0.57;;;21.70;56.90;;;;;;5055495;28;20492;-57
2022/05/13 00:23:46;;;;;;;2.28;0.80;;;21.70;56.90;;;;;;5054244;28;20463;-57
2022/05/13 00:26:12;;;;;;;2.05;0.95;;;21.70;56.90;;;;;;5055716;28;20087;-57
2022/05/13 00:28:37;;;;;;;2.40;0.77;;;21.70;56.90;;;;;;5055456;28;20041;-57
2022/05/13 00:31:04;;;;;;;1.77;0.70;;;21.60;56.80;;;;;;5053035;28;20124;-56
2022/05/13 00:33:30;;;;;;;2.47;0.60;;;21.60;56.80;;;;;;5055448;28;20107;-57
2022/05/13 00:35:56;;;;;;;1.60;0.60;;;21.60;56.80;;;;;;5054679;28;20053;-57
2022/05/13 00:38:22;;;;;;;1.83;0.70;;;21.60;56.80;;;;;;5055281;28;20045;-57
2022/05/13 00:40:48;;;;;;;1.00;0.50;;;21.60;56.70;;;;;;5055107;28;20098;-57
2022/05/13 00:43:14;;;;;;;2.60;0.68;;;21.60;56.70;;;;;;5054349;28;20075;-57
2022/05/13 00:45:40;;;;;;;1.65;0.60;;;21.60;56.70;;;;;;5054922;28;20048;-57
2022/05/13 00:48:06;;;;;;;1.77;0.60;;;21.60;56.70;;;;;;5055353;28;20049;-57
2022/05/13 00:50:34;;;;;;;2.28;0.70;;;21.60;56.60;;;;;;5054104;28;20170;-57
2022/05/13 00:53:00;;;;;;;1.77;0.68;;;21.60;56.60;;;;;;5054768;28;20072;-57
2022/05/13 00:55:36;;;;;;;2.72;0.60;;;21.60;56.70;;;;;;5054660;28;20438;-57
2022/05/13 00:58:04;;;;;;;1.30;0.50;;;21.60;56.60;;;;;;5069285;28;20041;-56
2022/05/13 01:00:29;;;;;;;2.23;0.60;;;21.50;56.60;;;;;;5053926;28;20048;-57
2022/05/13 01:02:55;;;;;;;1.25;0.60;;;21.50;56.60;;;;;;5054085;28;20314;-57
2022/05/13 01:05:20;;;;;;;1.45;0.40;;;21.50;56.60;;;;;;5069472;28;20049;-57
2022/05/13 01:07:46;;;;;;;1.40;0.50;;;21.50;57.20;;;;;;5054526;28;20080;-57
2022/05/13 01:10:15;;;;;;;1.92;0.52;;;21.50;56.60;;;;;;5054939;28;20055;-57
2022/05/13 01:12:42;;;;;;;1.05;0.50;;;21.50;56.60;;;;;;5068525;28;20496;-57
2022/05/13 01:15:10;;;;;;;1.40;0.50;;;21.50;56.60;;;;;;5053428;28;20115;-56
2022/05/13 01:20:29;;;;;;;1.75;0.52;;;21.50;56.60;;;;;;5053990;28;20053;-57
2022/05/13 01:23:00;;;;;;;1.13;0.40;;;21.50;56.50;;;;;;5054091;28;20059;-57
2022/05/13 01:25:26;;;;;;;1.13;0.50;;;21.50;56.50;;;;;;5053662;28;20120;-57
2022/05/13 01:27:53;;;;;;;2.92;0.60;;;21.50;56.50;;;;;;5054099;28;20052;-57
2022/05/13 01:30:22;;;;;;;0.90;0.60;;;21.50;56.40;;;;;;5054478;28;20076;-57
2022/05/13 01:32:47;;;;;;;1.02;0.60;;;21.40;56.40;;;;;;5053302;28;20049;-57
2022/05/13 01:35:13;;;;;;;1.67;0.50;;;21.40;56.30;;;;;;5054237;28;20048;-57
2022/05/13 01:37:39;;;;;;;2.55;0.50;;;21.40;57.10;;;;;;5052621;28;20049;-57
2022/05/13 01:40:05;;;;;;;1.63;0.60;;;21.40;56.30;;;;;;5053519;28;20041;-57
2022/05/13 01:42:31;;;;;;;1.80;0.60;;;21.40;56.60;;;;;;5054169;28;20049;-57
2022/05/13 01:44:57;;;;;;;1.75;0.57;;;21.40;56.30;;;;;;5053827;28;20075;-57
2022/05/13 01:47:23;;;;;;;2.00;0.60;;;21.40;56.30;;;;;;5052942;28;20037;-57
2022/05/13 01:49:49;;;;;;;2.03;0.40;;;21.40;56.30;;;;;;5053558;28;20131;-57
2022/05/13 01:52:14;;;;;;;2.53;0.60;;;21.40;56.30;;;;;;5053726;28;20120;-57
2022/05/13 01:54:40;;;;;;;1.65;0.55;;;21.40;56.30;;;;;;5052732;28;20049;-57
2022/05/13 01:57:06;;;;;;;1.10;0.50;;;21.40;56.30;;;;;;5053541;28;20037;-56
2022/05/13 01:59:31;;;;;;;1.38;0.63;;;21.40;56.20;;;;;;5053509;28;20503;-56
2022/05/13 02:01:57;;;;;;;1.02;0.60;;;21.30;56.20;;;;;;5052725;28;20040;-57
2022/05/13 02:04:22;;;;;;;0.88;0.50;;;21.30;56.20;;;;;;5053305;28;20477;-57
2022/05/13 02:06:48;;;;;;;1.33;0.50;;;21.30;56.20;;;;;;5053538;28;20390;-57
2022/05/13 02:09:13;;;;;;;1.20;0.57;;;21.30;56.10;;;;;;5052352;28;20045;-57
2022/05/13 02:11:39;;;;;;;1.65;0.60;;;21.30;56.10;;;;;;5053316;28;20045;-57
2022/05/13 02:14:05;;;;;;;0.82;0.50;;;21.30;56.10;;;;;;5052169;28;20061;-57
2022/05/13 02:16:31;;;;;;;1.88;0.60;;;21.30;56.10;;;;;;5052514;28;20396;-58
2022/05/13 02:18:57;;;;;;;1.98;0.77;;;21.30;56.10;;;;;;5053159;28;20049;-58
2022/05/13 02:21:22;;;;;;;1.10;0.60;;;21.30;56.10;;;;;;5053228;28;20044;-57
2022/05/13 02:23:48;;;;;;;1.80;0.50;;;21.30;56.10;;;;;;5052214;28;20041;-57
2022/05/13 02:26:14;;;;;;;1.58;0.60;;;21.30;56.10;;;;;;5053197;28;20408;-57
2022/05/13 02:28:40;;;;;;;1.25;0.60;;;21.30;56.10;;;;;;5052318;28;20535;-57
2022/05/13 02:31:05;;;;;;;1.30;0.50;;;21.30;56.10;;;;;;5053187;28;20037;-57
2022/05/13 02:33:31;;;;;;;1.50;0.40;;;21.30;56.10;;;;;;5053209;28;20049;-57
2022/05/13 02:35:56;;;;;;;1.50;0.50;;;21.30;56.10;;;;;;5052115;28;20128;-57
2022/05/13 02:38:22;;;;;;;2.35;0.50;;;21.30;56.00;;;;;;5052799;28;20075;-57
2022/05/13 02:43:32;;;;;;;1.42;0.47;;;21.30;56.00;;;;;;5052388;28;20080;-57
2022/05/13 02:45:58;;;;;;;2.63;0.65;;;21.30;56.00;;;;;;5052785;28;20048;-57
2022/05/13 02:48:23;;;;;;;1.83;0.55;;;21.20;56.00;;;;;;5052979;28;20056;-57
2022/05/13 02:50:49;;;;;;;2.15;0.70;;;21.20;55.90;;;;;;5051721;28;20045;-57
2022/05/13 02:53:14;;;;;;;0.93;0.45;;;21.20;56.00;;;;;;5052547;28;20119;-57
2022/05/13 02:55:40;;;;;;;1.27;0.40;;;21.20;55.90;;;;;;5052194;28;20052;-57
2022/05/13 02:58:06;;;;;;;1.55;0.68;;;21.20;56.00;;;;;;5052143;28;20049;-56
2022/05/13 03:00:32;;;;;;;1.58;0.57;;;21.20;55.90;;;;;;5052813;28;20081;-57
2022/05/13 03:02:57;;;;;;;1.88;0.50;;;21.20;55.90;;;;;;5052410;28;20044;-56
2022/05/13 03:05:23;;;;;;;1.77;0.52;;;21.20;55.90;;;;;;5051812;28;20486;-57
2022/05/13 03:07:50;;;;;;;1.38;0.60;;;21.20;55.90;;;;;;5052400;28;20079;-57
2022/05/13 03:10:16;;;;;;;2.22;0.55;;;21.20;56.10;;;;;;5052332;28;20398;-57
2022/05/13 03:12:41;;;;;;;1.23;0.50;;;21.20;55.90;;;;;;5051292;28;20140;-57
2022/05/13 03:15:07;;;;;;;0.95;0.50;;;21.20;55.80;;;;;;5052266;28;20127;-57
2022/05/13 03:17:34;;;;;;;1.23;0.50;;;21.20;55.80;;;;;;5052705;28;20040;-57
2022/05/13 03:20:00;;;;;;;0.60;0.40;;;21.20;55.80;;;;;;5051498;28;20123;-57
2022/05/13 03:22:26;;;;;;;0.75;0.30;;;21.20;55.90;;;;;;5052560;28;20124;-57
2022/05/13 03:24:51;;;;;;;1.25;0.50;;;21.20;55.90;;;;;;5050547;28;20102;-57
2022/05/13 03:27:17;;;;;;;1.52;0.52;;;21.20;55.80;;;;;;5052454;28;20033;-57
2022/05/13 03:29:42;;;;;;;1.70;0.60;;;21.20;55.80;;;;;;5052198;28;20436;-57
2022/05/13 03:32:08;;;;;;;2.00;0.60;;;21.10;55.80;;;;;;5051611;28;20446;-56
2022/05/13 03:34:37;;;;;;;1.70;0.60;;;21.20;55.80;;;;;;5052300;28;20446;-57
2022/05/13 03:37:03;;;;;;;0.70;0.32;;;21.10;55.80;;;;;;5051959;28;20072;-57
2022/05/13 03:39:29;;;;;;;1.45;0.55;;;21.10;55.80;;;;;;5051602;28;20056;-57
2022/05/13 03:41:55;;;;;;;1.48;0.55;;;21.10;55.80;;;;;;5052030;28;20037;-57
2022/05/13 03:44:20;;;;;;;1.23;0.55;;;21.10;55.80;;;;;;5052426;28;20060;-57
2022/05/13 03:46:46;;;;;;;1.80;0.47;;;21.10;55.80;;;;;;5051292;28;20062;-57
2022/05/13 03:49:11;;;;;;;1.00;0.40;;;21.10;56.50;;;;;;5052224;28;20132;-57
2022/05/13 03:51:37;;;;;;;1.65;0.57;;;21.10;55.80;;;;;;5052166;28;20128;-57
2022/05/13 03:54:03;;;;;;;0.98;0.40;;;21.10;55.80;;;;;;5051049;28;20041;-57
2022/05/13 03:56:29;;;;;;;2.42;0.70;;;21.10;55.80;;;;;;5051870;28;20481;-57
2022/05/13 03:58:54;;;;;;;2.45;0.55;;;21.10;55.80;;;;;;5051761;28;20051;-57
2022/05/13 04:01:20;;;;;;;2.78;0.60;;;21.10;55.80;;;;;;5051148;28;20053;-56
2022/05/13 04:03:47;;;;;;;2.30;0.70;;;21.10;55.70;;;;;;5051223;28;20048;-57
2022/05/13 04:09:01;;;;;;;3.83;0.60;;;21.10;55.80;;;;;;5050887;28;20052;-57
2022/05/13 04:11:40;;;;;;;2.53;0.60;;;21.10;55.80;;;;;;5051642;28;20041;-57
2022/05/13 04:16:50;;;;;;;2.45;0.60;;;21.00;55.70;;;;;;5051341;28;20053;-57
2022/05/13 04:19:16;;;;;;;1.70;0.77;;;21.00;55.70;;;;;;5051867;28;20049;-57
2022/05/13 04:21:42;;;;;;;2.47;0.60;;;21.00;55.70;;;;;;5051084;28;20033;-57
2022/05/13 04:24:09;;;;;;;2.00;0.75;;;21.00;55.60;;;;;;5051987;28;20141;-57
2022/05/13 04:26:35;;;;;;;1.25;0.55;;;21.00;55.70;;;;;;5051632;28;20488;-57
2022/05/13 04:29:01;;;;;;;1.70;0.55;;;21.00;55.60;;;;;;5050544;28;20048;-57
2022/05/13 04:31:31;;;;;;;2.42;0.60;;;21.00;55.70;;;;;;5051660;28;20041;-57
2022/05/13 04:33:57;;;;;;;2.22;0.70;;;21.00;55.60;;;;;;5051525;28;20045;-57
2022/05/13 04:36:23;;;;;;;1.40;0.50;;;21.00;55.60;;;;;;5051097;28;20099;-57
2022/05/13 04:38:49;;;;;;;1.30;0.50;;;21.00;55.60;;;;;;5054683;28;20045;-57
2022/05/13 04:43:59;;;;;;;2.97;0.50;;;21.00;55.60;;;;;;5053911;28;20059;-57
2022/05/13 04:46:25;;;;;;;1.60;0.43;;;21.00;55.70;;;;;;5054864;28;20120;-57
2022/05/13 04:48:51;;;;;;;1.15;0.40;;;21.00;55.60;;;;;;5054904;28;20445;-57
2022/05/13 04:51:20;;;;;;;1.75;0.60;;;21.00;55.60;;;;;;5054394;28;20044;-57
2022/05/13 04:53:47;;;;;;;1.80;0.50;;;21.00;56.30;;;;;;5054649;28;20052;-57
2022/05/13 04:56:13;;;;;;;1.52;0.50;;;20.90;55.60;;;;;;5054139;28;20534;-57
2022/05/13 04:58:38;;;;;;;2.42;0.70;;;20.90;55.60;;;;;;5054857;28;20132;-56
2022/05/13 05:01:05;;;;;;;2.15;0.60;;;20.90;55.60;;;;;;5054851;28;20116;-56
2022/05/13 05:03:32;;;;;;;0.93;0.45;;;20.90;55.50;;;;;;5054234;28;20060;-57
2022/05/13 05:05:57;;;;;;;1.92;0.50;;;20.90;55.60;;;;;;5054588;28;20481;-57
2022/05/13 05:08:23;;;;;;;0.52;0.40;;;20.90;55.60;;;;;;5054724;28;20049;-57
2022/05/13 05:10:48;;;;;;;3.05;0.60;;;20.90;55.50;;;;;;5053455;28;20041;-57
2022/05/13 05:13:38;;;;;;;1.10;0.50;;;20.90;55.60;;;;;;5054193;28;20516;-57
2022/05/13 05:16:05;;;;;;;2.75;0.52;;;20.90;55.50;;;;;;5054594;28;20048;-57
2022/05/13 05:18:31;;;;;;;1.73;0.50;;;20.90;55.60;;;;;;5053784;28;20045;-56
2022/05/13 05:20:57;;;;;;;2.33;0.57;;;20.90;55.60;;;;;;5054386;28;20041;-57
2022/05/13 05:23:27;;;;;;;0.98;0.47;;;20.90;55.60;;;;;;5054153;28;20098;-57
2022/05/13 05:25:53;;;;;;;0.82;0.50;;;20.90;55.60;;;;;;5053376;28;20103;-57
2022/05/13 05:28:19;;;;;;;2.05;0.75;;;20.90;55.60;;;;;;5054541;28;20060;-57
2022/05/13 05:30:44;;;;;;;1.42;0.55;;;20.90;55.60;;;;;;5053943;28;20049;-57
2022/05/13 05:33:10;;;;;;;1.85;0.68;;;20.90;55.60;;;;;;5053468;28;20095;-56
2022/05/13 05:35:36;;;;;;;1.52;0.50;;;20.90;56.30;;;;;;5054149;28;20045;-56
2022/05/13 05:38:01;;;;;;;1.27;0.40;;;20.90;55.60;;;;;;5053845;28;20476;-56
2022/05/13 05:40:27;;;;;;;1.50;0.50;;;20.90;55.60;;;;;;5053425;28;20128;-56
2022/05/13 05:42:52;;;;;;;2.90;0.60;;;20.90;55.60;;;;;;5053829;28;20041;-57
2022/05/13 05:45:19;;;;;;;1.15;0.60;;;20.90;55.50;;;;;;5054092;28;20041;-57
2022/05/13 05:47:45;;;;;;;1.73;0.52;;;20.90;55.40;;;;;;5053074;28;20098;-58
2022/05/13 05:50:13;;;;;;;2.40;0.70;;;20.90;55.40;;;;;;5054046;28;20049;-57
2022/05/13 05:52:38;;;;;;;1.83;0.50;;;20.90;55.40;;;;;;5052580;28;20094;-57
2022/05/13 05:58:15;;;;;;;1.83;0.50;;;20.90;55.40;;;;;;5053657;28;20088;-57
2022/05/13 06:00:43;;;;;;;2.03;0.73;;;20.90;55.40;;;;;;5051435;28;20048;-58
2022/05/13 06:03:08;;;;;;;1.45;0.60;;;20.90;55.40;;;;;;5053693;28;20093;-58
2022/05/13 06:05:34;;;;;;;1.42;0.45;;;20.90;55.40;;;;;;5053798;28;20469;-57
2022/05/13 06:08:00;;;;;;;1.67;0.80;;;20.90;55.40;;;;;;5052258;28;20044;-58
2022/05/13 06:10:26;;;;;;;2.55;0.57;;;20.90;55.40;;;;;;5053771;28;20037;-58
2022/05/13 06:12:52;;;;;;;2.50;0.70;;;21.00;55.50;;;;;;5053045;28;20049;-58
2022/05/13 06:15:17;;;;;;;2.65;0.60;;;20.90;55.50;;;;;;5043591;28;20052;-58
2022/05/13 06:17:48;;;;;;;4.18;0.63;;;21.00;55.70;;;;;;5040912;28;20477;-58
2022/05/13 06:20:15;;;;;;;5.35;0.50;;;21.00;55.90;;;;;;5033561;28;20049;-58
2022/05/13 06:22:40;;;;;;;2.33;0.80;;;21.00;56.00;;;;;;5032267;28;20187;-58
2022/05/13 06:25:08;;;;;;;1.92;0.60;;;21.00;55.90;;;;;;5033195;28;20550;-57
2022/05/13 06:27:33;;;;;;;6.10;0.80;;;21.10;55.90;;;;;;5048704;28;20124;-58
2022/05/13 06:29:59;;;;;;;2.63;0.52;;;21.10;55.90;;;;;;5032151;28;20125;-58
2022/05/13 06:32:24;;;;;;;2.95;0.77;;;21.10;56.00;;;;;;5033368;28;20100;-58
2022/05/13 06:34:50;;;;;;;1.85;0.70;;;21.10;56.00;;;;;;5032202;28;20045;-58
2022/05/13 06:37:15;;;;;;;2.92;0.50;;;21.10;56.00;;;;;;5033127;28;20532;-58
2022/05/13 06:39:41;;;;;;;3.58;0.60;;;21.10;56.10;;;;;;5032780;28;20052;-58
2022/05/13 06:42:06;;;;;;;2.30;0.70;;;21.20;56.20;;;;;;5032497;28;20068;-58
2022/05/13 06:44:32;;;;;;;2.92;0.60;;;21.10;56.10;;;;;;5033109;28;20049;-58
2022/05/13 06:46:57;;;;;;;3.22;0.82;;;21.20;56.20;;;;;;5032744;28;20399;-58
2022/05/13 06:49:23;;;;;;;4.57;0.60;;;21.20;56.20;;;;;;5032221;28;20579;-58
2022/05/13 06:51:48;;;;;;;2.53;0.60;;;21.20;56.30;;;;;;5032678;28;20037;-58
2022/05/13 06:54:14;;;;;;;3.22;0.50;;;21.20;56.30;;;;;;5032886;28;20055;-58
2022/05/13 06:56:41;;;;;;;4.47;0.63;;;21.20;56.40;;;;;;5031744;28;20045;-57
2022/05/13 06:59:07;;;;;;;4.70;0.70;;;21.20;56.40;;;;;;5032427;28;20122;-57
2022/05/13 07:01:33;;;;;;;1.58;0.45;;;21.20;56.50;;;;;;5032337;28;20052;-57
2022/05/13 07:03:58;;;;;;;3.90;0.63;;;21.20;56.70;;;;;;5031864;28;20049;-58
2022/05/13 07:06:24;;;;;;;2.75;0.60;;;21.20;56.70;;;;;;5032720;28;20041;-57
2022/05/13 07:08:50;;;;;;;2.30;0.60;;;21.30;56.80;;;;;;5032091;28;20084;-58
2022/05/13 07:11:19;;;;;;;3.88;0.70;;;21.30;56.90;;;;;;5031954;28;20124;-57
2022/05/13 07:13:44;;;;;;;2.75;0.60;;;21.20;56.80;;;;;;5031669;28;20045;-58
2022/05/13 07:16:10;;;;;;;2.13;0.70;;;21.30;57.00;;;;;;5032749;28;20072;-57
2022/05/13 07:18:36;;;;;;;2.72;0.60;;;21.30;57.00;;;;;;5031922;28;20095;-57
2022/05/13 07:21:02;;;;;;;3.67;0.90;;;21.20;57.00;;;;;;5032212;28;20045;-58
2022/05/13 07:23:29;;;;;;;3.72;0.70;;;21.30;57.00;;;;;;5032466;28;20069;-58
2022/05/13 07:25:55;;;;;;;5.57;0.77;;;21.30;57.10;;;;;;5031600;28;20046;-58
2022/05/13 07:28:21;;;;;;;2.90;0.60;;;21.30;57.10;;;;;;5034879;28;20044;-57
2022/05/13 07:30:47;;;;;;;3.05;0.70;;;21.30;57.20;;;;;;5040701;28;20481;-58
2022/05/13 07:33:13;;;;;;;2.65;0.60;;;21.30;57.20;;;;;;5040396;28;20041;-58
2022/05/13 07:35:39;;;;;;;3.92;1.05;;;21.30;57.20;;;;;;5037936;28;20144;-58
2022/05/13 07:38:06;;;;;;;3.30;0.60;;;21.30;57.20;;;;;;5031431;28;20088;-58
2022/05/13 07:43:16;;;;;;;2.67;0.60;;;21.30;57.00;;;;;;5032083;28;20404;-58
2022/05/13 07:45:41;;;;;;;2.40;0.50;;;21.30;57.10;;;;;;5031288;28;20499;-58
2022/05/13 07:48:07;;;;;;;5.47;0.63;;;21.30;57.10;;;;;;5032106;28;20038;-58
2022/05/13 07:50:33;;;;;;;3.70;0.70;;;21.30;57.20;;;;;;5032347;28;20041;-57
2022/05/13 07:52:58;;;;;;;2.88;0.65;;;21.30;57.20;;;;;;5046348;28;20041;-57
2022/05/13 07:55:24;;;;;;;3.22;0.60;;;21.40;57.30;;;;;;5032056;28;20045;-57
2022/05/13 07:57:49;;;;;;;3.85;0.70;;;21.40;57.40;;;;;;5031835;28;20405;-58
2022/05/13 08:00:25;;;;;;;3.00;0.60;;;21.40;57.40;;;;;;5031468;28;20053;-58
2022/05/13 08:02:59;;;;;;;4.82;0.90;;;21.40;57.40;;;;;;5031956;28;20052;-58
2022/05/13 08:05:26;;;;;;;3.78;0.50;;;21.50;57.50;;;;;;5032293;28;20053;-58
2022/05/13 08:08:05;;;;;;;4.20;0.73;;;21.40;57.40;;;;;;5031093;28;20037;-58
2022/05/13 08:10:31;;;;;;;3.80;0.90;;;21.50;57.50;;;;;;5032231;28;20055;-58
2022/05/13 08:12:56;;;;;;;6.45;0.70;;;21.50;57.50;;;;;;5033620;28;20140;-58
2022/05/13 08:15:22;;;;;;;3.35;1.20;;;21.50;57.60;;;;;;5034984;28;20050;-59
2022/05/13 08:17:47;;;;;;;2.33;0.80;;;21.50;57.60;;;;;;5034446;28;20041;-59
2022/05/13 08:20:13;;;;;;;4.72;0.73;;;21.40;57.50;;;;;;5035081;28;20046;-59
2022/05/13 08:22:38;;;;;;;3.30;0.82;;;21.40;57.60;;;;;;5035474;28;20041;-59
2022/05/13 08:25:04;;;;;;;2.20;0.60;;;21.40;57.60;;;;;;5035717;28;20506;-58
2022/05/13 08:27:32;;;;;;;3.40;0.60;;;21.50;57.70;;;;;;5034729;28;20044;-58
2022/05/13 08:29:58;;;;;;;5.68;0.70;;;21.50;57.70;;;;;;5035235;28;20485;-58
2022/05/13 08:32:24;;;;;;;3.85;0.70;;;21.50;57.70;;;;;;5035469;28;20037;-58
2022/05/13 08:34:50;;;;;;;3.50;0.60;;;21.50;57.60;;;;;;5034394;28;20045;-58
2022/05/13 08:37:16;;;;;;;4.80;0.52;;;21.50;57.70;;;;;;5035365;28;20044;-58
2022/05/13 08:39:41;;;;;;;1.85;0.60;;;21.50;57.70;;;;;;5035241;28;20045;-58
2022/05/13 08:42:13;;;;;;;4.35;0.60;;;21.50;57.60;;;;;;5034769;28;20056;-58
2022/05/13 08:44:38;;;;;;;2.20;0.60;;;21.50;57.70;;;;;;5063569;28;20491;-58
2022/05/13 08:47:14;;;;;;;2.20;0.65;;;21.50;57.60;;;;;;5073808;28;20127;-58
2022/05/13 08:49:46;;;;;;;1.98;0.60;;;21.50;57.60;;;;;;5072978;28;20045;-58
2022/05/13 08:55:12;;;;;;;2.20;0.57;;;21.60;57.60;;;;;;5074066;28;20060;-58
2022/05/13 08:57:41;;;;;;;4.63;0.75;;;21.50;57.50;;;;;;5072932;28;20413;-57
2022/05/13 09:00:08;;;;;;;2.78;0.60;;;21.50;57.50;;;;;;5073517;28;20049;-57
2022/05/13 09:02:36;;;;;;;2.87;0.60;;;21.50;57.40;;;;;;5074411;28;20071;-57
2022/05/13 09:05:16;;;;;;;1.77;0.65;;;21.50;57.50;;;;;;5073410;28;20298;-57
2022/05/13 09:07:42;;;;;;;4.18;0.70;;;21.50;57.30;;;;;;5073307;28;20067;-58
2022/05/13 09:10:08;;;;;;;2.20;0.50;;;21.50;57.40;;;;;;5074191;28;20480;-57
2022/05/13 09:12:53;;;;;;;3.45;0.50;;;21.50;57.40;;;;;;5074324;28;20045;-57
2022/05/13 09:15:38;;;;;;;2.50;0.68;;;21.60;57.50;;;;;;5073560;28;20040;-57
2022/05/13 09:18:06;;;;;;;2.13;0.50;;;21.60;57.50;;;;;;5043166;28;20056;-57
2022/05/13 09:20:38;;;;;;;5.55;0.77;;;21.60;57.60;;;;;;5054700;28;20060;-58
2022/05/13 09:23:03;;;;;;;2.65;0.52;;;21.60;57.70;;;;;;5052772;28;20040;-58
2022/05/13 09:25:54;;;;;;;1.77;0.70;;;21.60;57.50;;;;;;5052388;28;20094;-58
2022/05/13 09:28:20;;;;;;;3.92;0.50;;;21.60;57.30;;;;;;5069838;28;20052;-58
2022/05/13 09:30:48;;;;;;;2.55;0.60;;;21.60;57.30;;;;;;5044510;28;20045;-59
2022/05/13 09:33:33;;;;;;;2.60;0.70;;;21.50;57.20;;;;;;5042328;28;20076;-58
2022/05/13 09:36:07;;;;;;;1.55;0.60;;;21.50;57.10;;;;;;5034149;28;20227;-58
2022/05/13 09:38:43;;;;;;;3.63;0.77;;;21.60;57.20;;;;;;5048890;28;20041;-58
2022/05/13 09:41:11;;;;;;;3.03;0.68;;;21.60;57.10;;;;;;5049127;28;20049;-58
2022/05/13 09:43:39;;;;;;;4.07;0.80;;;21.60;56.90;;;;;;5034203;28;20132;-59
2022/05/13 09:46:07;;;;;;;3.35;0.70;;;21.60;56.70;;;;;;5032369;28;20041;-57
2022/05/13 09:48:34;;;;;;;9.50;1.27;;;21.60;56.60;;;;;;5051200;28;20120;-58
2022/05/13 09:51:19;;;;;;;5.57;0.80;;;21.60;56.80;;;;;;5051140;28;20508;-60
2022/05/13 09:53:44;;;;;;;7.95;1.00;;;21.60;56.80;;;;;;5050145;28;20049;-59
2022/05/13 09:56:10;;;;;;;11.10;1.33;;;21.60;56.70;;;;;;5052269;28;20044;-59
2022/05/13 09:58:49;;;;;;;6.47;0.80;;;21.60;56.70;;;;;;5052071;28;20072;-59
2022/05/13 10:01:15;;;;;;;5.75;1.02;;;21.60;56.70;;;;;;5050747;28;20045;-59
2022/05/13 10:03:41;;;;;;;4.45;0.70;;;21.60;56.80;;;;;;5052085;28;20044;-58
2022/05/13 10:06:09;;;;;;;5.40;0.85;;;21.60;56.80;;;;;;5053093;28;20052;-58
2022/05/13 10:08:55;;;;;;;6.65;0.88;;;21.60;56.90;;;;;;5053489;28;20048;-58
2022/05/13 10:14:22;;;;;;;4.63;0.70;;;21.60;56.80;;;;;;5052645;28;20060;-58
2022/05/13 10:16:48;;;;;;;5.53;0.57;;;21.60;56.90;;;;;;5066947;28;20100;-58
2022/05/13 10:19:38;;;;;;;7.38;0.93;;;21.60;56.90;;;;;;5053078;28;20123;-59
2022/05/13 10:22:29;;;;;;;7.82;0.80;;;21.60;57.00;;;;;;5066886;28;20048;-59
2022/05/13 10:25:04;;;;;;;4.35;0.80;;;21.50;57.00;;;;;;5065975;28;20041;-59
2022/05/13 10:27:45;;;;;;;1.77;0.52;;;21.50;57.10;;;;;;5041978;28;20048;-59
2022/05/13 10:30:28;;;;;;;6.18;0.85;;;21.50;57.10;;;;;;5044086;28;20045;-59
2022/05/13 10:32:55;;;;;;;6.40;1.10;;;21.50;57.10;;;;;;5048445;28;20083;-59
2022/05/13 10:35:23;;;;;;;5.25;1.00;;;21.50;57.20;;;;;;5031709;28;20045;-59
2022/05/13 10:38:12;;;;;;;10.82;1.55;;;21.60;57.20;;;;;;5048046;28;20094;-59
2022/05/13 10:40:40;;;;;;;6.07;0.80;;;21.60;57.10;;;;;;5032153;28;20050;-59
2022/05/13 10:43:21;;;;;;;6.45;0.80;;;21.60;57.00;;;;;;5047669;28;20503;-59
2022/05/13 10:45:47;;;;;;;7.28;0.90;;;21.60;56.90;;;;;;5048257;28;20041;-59
2022/05/13 10:48:21;;;;;;;8.57;0.90;;;21.60;56.80;;;;;;5047522;28;20424;-59
2022/05/13 10:51:06;;;;;;;3.90;0.63;;;21.60;56.80;;;;;;5032615;28;20488;-59
2022/05/13 10:53:55;;;;;;;8.05;0.85;;;21.60;56.70;;;;;;5036128;28;20041;-58
2022/05/13 10:56:26;;;;;;;5.40;0.80;;;21.60;56.60;;;;;;5052017;28;20041;-59
2022/05/13 10:59:13;;;;;;;4.43;0.88;;;21.60;56.60;;;;;;5052637;28;20119;-59
2022/05/13 11:02:03;;;;;;;7.13;1.00;;;21.60;56.60;;;;;;5066515;28;20055;-59
2022/05/13 11:04:49;;;;;;;6.28;0.82;;;21.60;56.60;;;;;;5052679;28;20052;-59
2022/05/13 11:07:34;;;;;;;6.95;1.02;;;21.60;56.40;;;;;;5065607;28;20443;-59
2022/05/13 11:10:22;;;;;;;3.63;0.90;;;21.60;56.10;;;;;;5050316;28;20480;-58
2022/05/13 11:12:52;;;;;;;8.98;1.13;;;21.60;55.70;;;;;;5067805;28;20519;-58
2022/05/13 11:15:50;;;;;;;6.38;0.80;;;21.60;55.50;;;;;;5068153;28;20099;-59
2022/05/13 11:18:25;;;;;;;5.30;0.80;;;21.60;55.20;;;;;;5051836;28;20136;-59
2022/05/13 11:20:53;;;;;;;4.57;0.93;;;21.60;55.00;;;;;;5067016;28;20037;-58
2022/05/13 11:23:43;;;;;;;8.00;1.07;;;21.60;54.80;;;;;;5067376;28;20383;-58
2022/05/13 11:26:28;;;;;;;5.65;0.90;;;21.60;54.60;;;;;;5052250;28;20310;-59
2022/05/13 11:29:05;;;;;;;6.63;0.85;;;21.60;54.30;;;;;;5066754;28;20045;-59
2022/05/13 11:31:40;;;;;;;4.63;0.88;;;21.60;54.30;;;;;;5050807;28;20053;-59
2022/05/13 11:34:30;;;;;;;6.57;1.05;;;21.60;54.10;;;;;;5052411;28;20194;-59
2022/05/13 11:36:57;;;;;;;4.68;0.80;;;21.60;53.80;;;;;;5051936;28;20386;-59
2022/05/13 11:39:34;;;;;;;5.47;0.95;;;21.60;53.80;;;;;;5051513;28;20200;-59
2022/05/13 11:42:22;;;;;;;5.95;1.15;;;21.60;53.50;;;;;;5067115;28;20128;-59
2022/05/13 11:45:27;;;;;;;5.63;0.75;;;21.60;53.50;;;;;;5066470;28;20049;-59
2022/05/13 11:48:11;;;;;;;10.60;1.00;;;21.60;53.10;;;;;;5068638;28;20500;-59
2022/05/13 11:50:36;;;;;;;5.55;1.00;;;21.60;52.80;;;;;;5070262;28;20041;-59
2022/05/13 11:53:02;;;;;;;4.40;1.08;;;21.60;52.80;;;;;;5070487;28;20053;-59
2022/05/13 11:55:46;;;;;;;6.45;1.00;;;21.60;52.70;;;;;;5056205;28;20041;-59
2022/05/13 11:58:46;;;;;;;4.05;0.80;;;21.60;52.50;;;;;;5055888;28;20049;-59
2022/05/13 12:01:11;;;;;;;5.18;1.08;;;21.60;52.40;;;;;;5056227;28;20124;-58
2022/05/13 12:03:38;;;;;;;4.00;1.10;;;21.60;52.60;;;;;;5071685;28;20131;-58
2022/05/13 12:06:09;;;;;;;5.32;1.17;;;21.60;52.50;;;;;;5055588;28;20049;-58
2022/05/13 12:08:45;;;;;;;6.57;1.70;;;21.60;52.40;;;;;;5071172;28;20033;-58
2022/05/13 12:11:19;;;;;;;5.95;1.55;;;21.60;52.40;;;;;;5056172;28;20049;-58
2022/05/13 12:14:22;;;;;;;9.10;1.90;;;21.60;52.50;;;;;;5070024;28;20524;-58
2022/05/13 12:17:11;;;;;;;9.93;2.63;;;21.60;52.60;;;;;;5055692;28;20094;-58
2022/05/13 12:20:06;;;;;;;6.93;1.73;;;21.60;52.50;;;;;;5055199;28;20044;-58
2022/05/13 12:22:38;;;;;;;9.15;1.95;;;21.60;52.60;;;;;;5070992;28;20045;-58
2022/05/13 12:25:08;;;;;;;10.05;2.35;;;21.60;52.60;;;;;;5071458;28;20488;-59
2022/05/13 12:27:45;;;;;;;4.72;1.80;;;21.60;52.70;;;;;;5055182;28;20124;-58
2022/05/13 12:30:31;;;;;;;7.63;1.83;;;21.70;52.70;;;;;;5055952;28;20155;-58
2022/05/13 12:33:19;;;;;;;6.72;1.80;;;21.60;52.70;;;;;;5055600;28;20099;-58
2022/05/13 12:39:10;;;;;;;8.38;2.55;;;21.60;52.70;;;;;;5055102;28;20049;-58
2022/05/13 12:41:42;;;;;;;6.68;2.33;;;21.60;52.60;;;;;;5054857;28;20060;-58
2022/05/13 12:44:16;;;;;;;12.30;2.13;;;21.60;52.60;;;;;;5055437;28;20047;-58
2022/05/13 12:46:46;;;;;;;8.77;1.65;;;21.60;52.70;;;;;;5055270;28;20040;-58
2022/05/13 12:49:19;;;;;;;8.35;2.00;;;21.60;52.60;;;;;;5054565;28;20049;-58
2022/05/13 12:52:10;;;;;;;4.43;1.73;;;21.60;52.60;;;;;;5069706;28;20555;-58
2022/05/13 12:54:45;;;;;;;7.13;1.50;;;21.60;52.60;;;;;;5054320;28;20045;-58
2022/05/13 12:57:21;;;;;;;6.72;1.90;;;21.70;52.60;;;;;;5070109;28;20041;-58
2022/05/13 12:59:48;;;;;;;6.90;1.80;;;21.70;52.60;;;;;;5069373;28;20385;-58
2022/05/13 13:02:14;;;;;;;8.33;1.60;;;21.60;52.60;;;;;;5053317;28;20033;-58
2022/05/13 13:04:57;;;;;;;5.53;1.35;;;21.60;52.60;;;;;;5070265;28;20066;-59
2022/05/13 13:07:24;;;;;;;5.57;1.55;;;21.60;52.40;;;;;;5068745;28;20408;-59
2022/05/13 13:09:53;;;;;;;6.53;1.65;;;21.60;52.40;;;;;;5053747;28;20072;-58
2022/05/13 13:12:32;;;;;;;5.75;1.50;;;21.60;52.50;;;;;;5054998;28;20098;-58
2022/05/13 13:15:04;;;;;;;6.90;1.58;;;21.60;52.50;;;;;;5053413;28;20063;-58
2022/05/13 13:17:45;;;;;;;5.50;1.40;;;21.60;52.40;;;;;;5054283;28;20084;-58
2022/05/13 13:20:14;;;;;;;5.00;1.27;;;21.70;52.50;;;;;;5069641;28;20052;-59
2022/05/13 13:22:44;;;;;;;7.28;1.52;;;21.70;52.50;;;;;;5053408;28;20099;-59
2022/05/13 13:25:24;;;;;;;4.68;1.50;;;21.70;52.40;;;;;;5070392;28;20053;-58
2022/05/13 13:27:49;;;;;;;6.82;1.50;;;21.70;52.40;;;;;;5054559;28;20044;-59